createdAt,value
2022-08-21T00:05:31.304Z,16.4
2022-08-21T00:10:53.293Z,16.4
2022-08-21T00:16:36.015Z,16.4
2022-08-21T00:22:01.358Z,16.3
2022-08-21T00:27:27.430Z,16.3
2022-08-21T00:33:14.627Z,16.3
2022-08-21T00:38:51.799Z,16.3
2022-08-21T00:44:55.399Z,16.2
2022-08-21T00:50:37.865Z,16.2
2022-08-21T00:56:23.336Z,16.1
2022-08-21T01:02:09.509Z,16.1
2022-08-21T01:07:47.961Z,16.1
2022-08-21T01:13:32.006Z,16.1
2022-08-21T01:18:52.439Z,16.1
2022-08-21T01:24:36.431Z,16
2022-08-21T01:30:16.481Z,16
2022-08-21T01:35:57.911Z,16
2022-08-21T01:41:35.936Z,15.9
2022-08-21T01:47:21.139Z,15.9
2022-08-21T01:52:44.680Z,15.9
2022-08-21T01:58:01.005Z,15.8
2022-08-21T02:03:51.787Z,15.8
2022-08-21T02:09:32.946Z,15.7
2022-08-21T02:15:06.443Z,15.7
2022-08-21T02:21:13.231Z,15.6
2022-08-21T02:26:55.870Z,15.4
2022-08-21T02:32:16.616Z,15.4
2022-08-21T02:37:54.737Z,15.3
2022-08-21T02:43:28.091Z,15.3
2022-08-21T02:49:05.743Z,15.3
2022-08-21T02:54:41.929Z,15.2
2022-08-21T03:00:18.490Z,15.1
2022-08-21T03:05:39.942Z,15.1
2022-08-21T03:11:07.901Z,15.1
2022-08-21T03:16:51.745Z,15.1
2022-08-21T03:22:36.139Z,15.1
2022-08-21T03:28:41.215Z,15.1
2022-08-21T03:34:06.177Z,15.2
2022-08-21T03:39:26.844Z,15.2
2022-08-21T03:45:03.175Z,15.3
2022-08-21T03:50:24.595Z,15.4
2022-08-21T03:55:52.660Z,15.5
2022-08-21T04:01:09.468Z,15.6
2022-08-21T04:06:54.125Z,15.6
2022-08-21T04:12:30.847Z,15.7
2022-08-21T04:18:13.874Z,15.8
2022-08-21T04:24:13.804Z,15.9
2022-08-21T04:29:56.403Z,15.9
2022-08-21T04:35:33.265Z,16.1
2022-08-21T04:41:20.429Z,16.2
2022-08-21T04:47:04.840Z,16.4
2022-08-21T04:53:02.241Z,16.5
2022-08-21T04:59:00.262Z,16.8
2022-08-21T05:09:45.214Z,17.3
2022-08-21T05:15:12.768Z,17.6
2022-08-21T05:21:01.813Z,18.2
2022-08-21T05:26:45.635Z,18.9
2022-08-21T05:32:32.031Z,19.9
2022-08-21T05:38:19.299Z,20.6
2022-08-21T05:44:45.326Z,21.8
2022-08-21T05:50:50.133Z,23.3
2022-08-21T05:56:36.264Z,24.2
2022-08-21T06:02:22.158Z,24.1
2022-08-21T06:08:12.775Z,23.9
2022-08-21T06:13:52.999Z,23.7
2022-08-21T06:19:34.515Z,23.6
2022-08-21T06:25:18.310Z,24.9
2022-08-21T06:30:56.625Z,28.6
2022-08-21T06:36:40.537Z,32.1
2022-08-21T06:42:45.117Z,35.5
2022-08-21T06:48:26.843Z,38.1
2022-08-21T06:54:09.052Z,40.9
2022-08-21T06:59:53.992Z,49.9
2022-08-21T07:05:34.433Z,60.6
2022-08-21T07:11:13.249Z,42.3
2022-08-21T07:16:59.469Z,46.7
2022-08-21T07:22:38.116Z,55.5
2022-08-21T07:28:20.286Z,47.3
2022-08-21T07:33:58.391Z,44.8
2022-08-21T07:39:45.441Z,44.4
2022-08-21T07:45:30.347Z,45
2022-08-21T07:51:24.226Z,46.4
2022-08-21T07:57:11.141Z,47.5
2022-08-21T08:02:48.130Z,51.5
2022-08-21T08:08:33.033Z,57.9
2022-08-21T08:14:10.193Z,51.1
2022-08-21T08:19:52.601Z,55.1
2022-08-21T08:25:53.026Z,54.6
2022-08-21T08:31:44.726Z,57.3
2022-08-21T08:37:41.301Z,59
2022-08-21T08:44:04.743Z,59.8
2022-08-21T08:49:43.712Z,56
2022-08-21T08:55:08.134Z,52.8
2022-08-21T09:00:51.368Z,54.9
2022-08-21T09:06:30.704Z,56.7
2022-08-21T09:12:07.227Z,59.4
2022-08-21T09:17:28.985Z,59.9
2022-08-21T09:23:14.265Z,59.6
2022-08-21T09:28:50.428Z,59.4
2022-08-21T09:34:38.788Z,57.1
2022-08-21T09:40:06.928Z,53.7
2022-08-21T09:45:43.511Z,57.4
2022-08-21T09:51:32.926Z,58.2
2022-08-21T09:57:14.842Z,53.3
2022-08-21T10:03:02.152Z,52.1
2022-08-21T10:08:45.349Z,50.6
2022-08-21T10:14:28.470Z,50.6
2022-08-21T10:20:05.904Z,57.1
2022-08-21T10:26:29.898Z,69.8
2022-08-21T10:32:22.502Z,58.3
2022-08-21T10:38:03.426Z,61.9
2022-08-21T10:44:18.903Z,59.7
2022-08-21T10:49:59.265Z,61
2022-08-21T10:55:47.493Z,61.7
2022-08-21T11:01:31.421Z,62.6
2022-08-21T11:07:17.444Z,64.3
2022-08-21T11:13:20.955Z,65.1
2022-08-21T11:19:14.417Z,65.6
2022-08-21T11:24:40.401Z,65.6
2022-08-21T11:30:28.258Z,65.4
2022-08-21T11:35:50.689Z,63.8
2022-08-21T11:41:35.869Z,64.8
2022-08-21T11:47:13.946Z,65.8
2022-08-21T11:53:10.536Z,63.2
2022-08-21T11:58:33.834Z,58.6
2022-08-21T12:04:15.958Z,56
2022-08-21T12:10:05.697Z,56.2
2022-08-21T12:15:58.126Z,56.4
2022-08-21T12:21:40.774Z,55.5
2022-08-21T12:27:27.475Z,54.6
2022-08-21T12:33:06.733Z,53.1
2022-08-21T12:38:55.748Z,51.8
2022-08-21T12:44:43.701Z,50.5
2022-08-21T12:50:09.394Z,49.8
2022-08-21T12:55:38.165Z,48.4
2022-08-21T13:01:16.345Z,47.2
2022-08-21T13:06:59.863Z,46.3
2022-08-21T13:13:12.519Z,45
2022-08-21T13:19:14.062Z,43.9
2022-08-21T13:25:36.339Z,43.1
2022-08-21T13:31:21.856Z,42.4
2022-08-21T13:37:04.037Z,42.3
2022-08-21T13:42:42.443Z,43.6
2022-08-21T13:48:26.271Z,44.6
2022-08-21T13:53:49.197Z,44.9
2022-08-21T13:59:26.657Z,45
2022-08-21T14:05:09.900Z,44.8
2022-08-21T14:10:48.278Z,44.5
2022-08-21T14:16:39.322Z,44.8
2022-08-21T14:22:31.035Z,44.7
2022-08-21T14:28:10.075Z,44.6
2022-08-21T14:34:15.697Z,46.1
2022-08-21T14:40:01.760Z,48
2022-08-21T14:45:40.066Z,47.6
2022-08-21T14:51:33.765Z,46.4
2022-08-21T14:57:22.695Z,44.9
2022-08-21T15:03:11.961Z,43.8
2022-08-21T15:08:57.461Z,42.7
2022-08-21T15:15:07.010Z,41.3
2022-08-21T15:20:44.480Z,40.8
2022-08-21T15:26:38.802Z,40.9
2022-08-21T15:32:24.790Z,40.7
2022-08-21T15:38:11.144Z,40.1
2022-08-21T15:44:04.323Z,39.6
2022-08-21T15:49:41.009Z,39
2022-08-21T15:55:25.501Z,38.1
2022-08-21T16:01:09.795Z,37.5
2022-08-21T16:07:10.836Z,36.9
2022-08-21T16:12:48.755Z,36.1
2022-08-21T16:18:28.325Z,35.5
2022-08-21T16:24:07.121Z,34.7
2022-08-21T16:30:00.935Z,33.8
2022-08-21T16:35:44.722Z,33.1
2022-08-21T16:41:24.517Z,32.4
2022-08-21T16:47:06.955Z,31.5
2022-08-21T16:52:51.952Z,30.6
2022-08-21T16:58:32.748Z,29.8
2022-08-21T17:04:12.715Z,28.9
2022-08-21T17:09:56.042Z,28.3
2022-08-21T17:15:55.810Z,27.6
2022-08-21T17:21:35.303Z,27
2022-08-21T17:27:12.495Z,26.4
2022-08-21T17:32:56.122Z,25.8
2022-08-21T17:38:37.693Z,25.4
2022-08-21T17:44:18.745Z,24.9
2022-08-21T17:49:59.323Z,24.4
2022-08-21T17:55:43.103Z,24
2022-08-21T18:01:28.408Z,23.6
2022-08-21T18:07:08.927Z,23.1
2022-08-21T18:12:55.101Z,22.8
2022-08-21T18:18:22.259Z,22.5
2022-08-21T18:24:18.214Z,22.3
2022-08-21T18:30:04.066Z,22
2022-08-21T18:35:49.190Z,21.6
2022-08-21T18:42:00.329Z,21.3
2022-08-21T18:47:47.924Z,21.1
